sensor_id;sensor_type;location;lat;lon;timestamp;temperature;humidity
20174;DHT22;10246;50.620;7.232;2023-07-16T00:00:58;22.50;1.00
20174;DHT22;10246;50.620;7.232;2023-07-16T00:03:25;22.50;1.00
20174;DHT22;10246;50.620;7.232;2023-07-16T00:05:51;22.40;1.00
20174;DHT22;10246;50.620;7.232;2023-07-16T00:08:20;22.40;1.00
20174;DHT22;10246;50.620;7.232;2023-07-16T00:10:46;22.30;1.00
20174;DHT22;10246;50.620;7.232;2023-07-16T00:13:13;22.30;1.00
20174;DHT22;10246;50.620;7.232;2023-07-16T00:15:40;22.30;1.00
20174;DHT22;10246;50.620;7.232;2023-07-16T00:18:06;22.20;1.00
20174;DHT22;10246;50.620;7.232;2023-07-16T00:20:33;22.20;1.00
20174;DHT22;10246;50.620;7.232;2023-07-16T00:23:00;22.10;1.00
20174;DHT22;10246;50.620;7.232;2023-07-16T00:25:28;22.10;1.00
20174;DHT22;10246;50.620;7.232;2023-07-16T00:27:55;22.00;1.00
20174;DHT22;10246;50.620;7.232;2023-07-16T00:30:21;22.00;1.00
20174;DHT22;10246;50.620;7.232;2023-07-16T00:32:48;22.00;1.00
20174;DHT22;10246;50.620;7.232;2023-07-16T00:35:15;21.90;1.00
20174;DHT22;10246;50.620;7.232;2023-07-16T00:37:42;21.90;1.00
20174;DHT22;10246;50.620;7.232;2023-07-16T00:40:11;21.90;1.00
20174;DHT22;10246;50.620;7.232;2023-07-16T00:42:39;21.90;1.00
20174;DHT22;10246;50.620;7.232;2023-07-16T00:45:11;21.90;1.00
20174;DHT22;10246;50.620;7.232;2023-07-16T00:47:40;21.90;1.00
20174;DHT22;10246;50.620;7.232;2023-07-16T00:50:10;21.80;1.00
20174;DHT22;10246;50.620;7.232;2023-07-16T00:52:38;21.80;1.00
20174;DHT22;10246;50.620;7.232;2023-07-16T00:55:06;21.80;1.00
20174;DHT22;10246;50.620;7.232;2023-07-16T00:57:33;21.80;1.00
20174;DHT22;10246;50.620;7.232;2023-07-16T01:00:02;21.70;1.00
20174;DHT22;10246;50.620;7.232;2023-07-16T01:02:30;21.70;1.00
20174;DHT22;10246;50.620;7.232;2023-07-16T01:04:57;21.70;1.00
20174;DHT22;10246;50.620;7.232;2023-07-16T01:07:25;21.70;1.00
20174;DHT22;10246;50.620;7.232;2023-07-16T01:09:53;21.70;1.00
20174;DHT22;10246;50.620;7.232;2023-07-16T01:12:22;21.60;1.00
20174;DHT22;10246;50.620;7.232;2023-07-16T01:14:50;21.60;1.00
20174;DHT22;10246;50.620;7.232;2023-07-16T01:17:19;21.60;1.00
20174;DHT22;10246;50.620;7.232;2023-07-16T01:19:46;21.50;1.00
20174;DHT22;10246;50.620;7.232;2023-07-16T01:22:34;21.50;1.00
20174;DHT22;10246;50.620;7.232;2023-07-16T01:25:14;21.50;1.00
20174;DHT22;10246;50.620;7.232;2023-07-16T01:28:09;21.40;1.00
20174;DHT22;10246;50.620;7.232;2023-07-16T01:30:39;21.40;1.00
20174;DHT22;10246;50.620;7.232;2023-07-16T01:33:08;21.40;1.00
20174;DHT22;10246;50.620;7.232;2023-07-16T01:35:36;21.40;1.00
20174;DHT22;10246;50.620;7.232;2023-07-16T01:38:03;21.30;1.00
20174;DHT22;10246;50.620;7.232;2023-07-16T01:40:30;21.30;1.00
20174;DHT22;10246;50.620;7.232;2023-07-16T01:42:57;21.30;1.00
20174;DHT22;10246;50.620;7.232;2023-07-16T01:45:24;21.30;1.00
20174;DHT22;10246;50.620;7.232;2023-07-16T01:48:00;21.20;1.00
20174;DHT22;10246;50.620;7.232;2023-07-16T01:50:30;21.10;1.00
20174;DHT22;10246;50.620;7.232;2023-07-16T01:53:00;21.10;1.00
20174;DHT22;10246;50.620;7.232;2023-07-16T01:55:28;21.10;1.00
20174;DHT22;10246;50.620;7.232;2023-07-16T01:57:55;21.10;1.00
20174;DHT22;10246;50.620;7.232;2023-07-16T02:00:22;21.00;1.00
20174;DHT22;10246;50.620;7.232;2023-07-16T02:02:48;21.00;1.00
20174;DHT22;10246;50.620;7.232;2023-07-16T02:05:16;20.90;1.00
20174;DHT22;10246;50.620;7.232;2023-07-16T02:07:43;20.90;1.00
20174;DHT22;10246;50.620;7.232;2023-07-16T02:10:10;20.90;1.00
20174;DHT22;10246;50.620;7.232;2023-07-16T02:12:37;20.80;1.00
20174;DHT22;10246;50.620;7.232;2023-07-16T02:15:04;20.80;1.00
20174;DHT22;10246;50.620;7.232;2023-07-16T02:17:31;20.80;1.00
20174;DHT22;10246;50.620;7.232;2023-07-16T02:20:00;20.80;1.00
20174;DHT22;10246;50.620;7.232;2023-07-16T02:22:31;20.70;1.00
20174;DHT22;10246;50.620;7.232;2023-07-16T02:24:58;20.80;1.00
20174;DHT22;10246;50.620;7.232;2023-07-16T02:27:25;20.80;1.00
20174;DHT22;10246;50.620;7.232;2023-07-16T02:29:51;20.70;1.00
20174;DHT22;10246;50.620;7.232;2023-07-16T02:32:18;20.70;1.00
20174;DHT22;10246;50.620;7.232;2023-07-16T02:34:45;20.70;1.00
20174;DHT22;10246;50.620;7.232;2023-07-16T02:37:12;20.60;1.00
20174;DHT22;10246;50.620;7.232;2023-07-16T02:39:45;20.60;1.00
20174;DHT22;10246;50.620;7.232;2023-07-16T02:42:13;20.60;1.00
20174;DHT22;10246;50.620;7.232;2023-07-16T02:44:40;20.60;1.00
20174;DHT22;10246;50.620;7.232;2023-07-16T02:47:10;20.60;1.00
20174;DHT22;10246;50.620;7.232;2023-07-16T02:49:36;20.60;1.00
20174;DHT22;10246;50.620;7.232;2023-07-16T02:52:04;20.60;1.00
20174;DHT22;10246;50.620;7.232;2023-07-16T02:54:31;20.60;1.00
20174;DHT22;10246;50.620;7.232;2023-07-16T02:57:00;20.60;1.00
20174;DHT22;10246;50.620;7.232;2023-07-16T02:59:27;20.50;1.00
20174;DHT22;10246;50.620;7.232;2023-07-16T03:01:54;20.50;1.00
20174;DHT22;10246;50.620;7.232;2023-07-16T03:04:20;20.50;1.00
20174;DHT22;10246;50.620;7.232;2023-07-16T03:06:47;20.40;1.00
20174;DHT22;10246;50.620;7.232;2023-07-16T03:09:14;20.40;1.00
20174;DHT22;10246;50.620;7.232;2023-07-16T03:11:41;20.30;1.00
20174;DHT22;10246;50.620;7.232;2023-07-16T03:14:09;20.30;1.00
20174;DHT22;10246;50.620;7.232;2023-07-16T03:16:35;20.30;1.00
20174;DHT22;10246;50.620;7.232;2023-07-16T03:19:02;20.30;1.00
20174;DHT22;10246;50.620;7.232;2023-07-16T03:21:29;20.30;1.00
20174;DHT22;10246;50.620;7.232;2023-07-16T03:23:56;20.30;1.00
20174;DHT22;10246;50.620;7.232;2023-07-16T03:26:23;20.20;1.00
20174;DHT22;10246;50.620;7.232;2023-07-16T03:28:50;20.20;1.00
20174;DHT22;10246;50.620;7.232;2023-07-16T03:31:22;20.20;1.00
20174;DHT22;10246;50.620;7.232;2023-07-16T03:33:48;20.20;1.00
20174;DHT22;10246;50.620;7.232;2023-07-16T03:36:15;20.10;1.00
20174;DHT22;10246;50.620;7.232;2023-07-16T03:38:42;20.10;1.00
20174;DHT22;10246;50.620;7.232;2023-07-16T03:41:08;20.20;1.00
20174;DHT22;10246;50.620;7.232;2023-07-16T03:43:35;20.10;1.00
20174;DHT22;10246;50.620;7.232;2023-07-16T03:46:02;20.10;1.00
20174;DHT22;10246;50.620;7.232;2023-07-16T03:48:34;20.10;1.00
20174;DHT22;10246;50.620;7.232;2023-07-16T03:51:01;20.10;1.00
20174;DHT22;10246;50.620;7.232;2023-07-16T03:53:27;20.00;1.00
20174;DHT22;10246;50.620;7.232;2023-07-16T03:55:54;20.10;1.00
20174;DHT22;10246;50.620;7.232;2023-07-16T03:58:21;20.10;1.00
20174;DHT22;10246;50.620;7.232;2023-07-16T04:00:48;20.00;1.00
20174;DHT22;10246;50.620;7.232;2023-07-16T04:03:15;20.00;1.00
20174;DHT22;10246;50.620;7.232;2023-07-16T04:05:43;20.00;1.00
20174;DHT22;10246;50.620;7.232;2023-07-16T04:08:10;20.00;1.00
20174;DHT22;10246;50.620;7.232;2023-07-16T04:10:36;19.90;1.00
20174;DHT22;10246;50.620;7.232;2023-07-16T04:13:03;19.90;1.00
20174;DHT22;10246;50.620;7.232;2023-07-16T04:15:30;19.90;1.00
20174;DHT22;10246;50.620;7.232;2023-07-16T04:17:57;19.90;1.00
20174;DHT22;10246;50.620;7.232;2023-07-16T04:20:23;19.80;1.00
20174;DHT22;10246;50.620;7.232;2023-07-16T04:22:51;19.80;1.00
20174;DHT22;10246;50.620;7.232;2023-07-16T04:25:18;19.80;1.00
20174;DHT22;10246;50.620;7.232;2023-07-16T04:27:45;19.80;1.00
20174;DHT22;10246;50.620;7.232;2023-07-16T04:30:12;19.80;1.00
20174;DHT22;10246;50.620;7.232;2023-07-16T04:32:38;19.80;1.00
20174;DHT22;10246;50.620;7.232;2023-07-16T04:35:06;19.80;1.00
20174;DHT22;10246;50.620;7.232;2023-07-16T04:37:33;19.80;1.00
20174;DHT22;10246;50.620;7.232;2023-07-16T04:40:01;19.80;1.00
20174;DHT22;10246;50.620;7.232;2023-07-16T04:42:29;19.80;1.00
20174;DHT22;10246;50.620;7.232;2023-07-16T04:44:56;19.80;1.00
20174;DHT22;10246;50.620;7.232;2023-07-16T04:47:23;19.80;1.00
20174;DHT22;10246;50.620;7.232;2023-07-16T04:49:50;19.80;1.00
20174;DHT22;10246;50.620;7.232;2023-07-16T04:52:16;19.80;1.00
20174;DHT22;10246;50.620;7.232;2023-07-16T04:54:43;19.80;1.00
20174;DHT22;10246;50.620;7.232;2023-07-16T04:57:11;19.80;1.00
20174;DHT22;10246;50.620;7.232;2023-07-16T04:59:38;19.70;1.00
20174;DHT22;10246;50.620;7.232;2023-07-16T05:02:06;19.80;1.00
20174;DHT22;10246;50.620;7.232;2023-07-16T05:04:32;19.80;1.00
20174;DHT22;10246;50.620;7.232;2023-07-16T05:10:21;19.80;1.00
20174;DHT22;10246;50.620;7.232;2023-07-16T05:12:50;19.70;1.00
20174;DHT22;10246;50.620;7.232;2023-07-16T05:15:17;19.70;1.00
20174;DHT22;10246;50.620;7.232;2023-07-16T05:17:44;19.70;1.00
20174;DHT22;10246;50.620;7.232;2023-07-16T05:20:11;19.80;1.00
20174;DHT22;10246;50.620;7.232;2023-07-16T05:22:38;19.80;1.00
20174;DHT22;10246;50.620;7.232;2023-07-16T05:25:05;19.80;1.00
20174;DHT22;10246;50.620;7.232;2023-07-16T05:27:32;19.80;1.00
20174;DHT22;10246;50.620;7.232;2023-07-16T05:30:00;19.80;1.00
20174;DHT22;10246;50.620;7.232;2023-07-16T05:32:27;19.90;1.00
20174;DHT22;10246;50.620;7.232;2023-07-16T05:34:53;19.90;1.00
20174;DHT22;10246;50.620;7.232;2023-07-16T05:37:20;19.90;1.00
20174;DHT22;10246;50.620;7.232;2023-07-16T05:39:47;19.90;1.00
20174;DHT22;10246;50.620;7.232;2023-07-16T05:42:14;19.90;1.00
20174;DHT22;10246;50.620;7.232;2023-07-16T05:44:40;20.00;1.00
20174;DHT22;10246;50.620;7.232;2023-07-16T05:47:11;20.00;1.00
20174;DHT22;10246;50.620;7.232;2023-07-16T05:49:37;20.00;1.00
20174;DHT22;10246;50.620;7.232;2023-07-16T05:52:08;20.10;1.00
20174;DHT22;10246;50.620;7.232;2023-07-16T05:54:35;20.20;1.00
20174;DHT22;10246;50.620;7.232;2023-07-16T05:57:02;20.20;1.00
20174;DHT22;10246;50.620;7.232;2023-07-16T05:59:28;20.20;1.00
20174;DHT22;10246;50.620;7.232;2023-07-16T06:01:55;20.20;1.00
20174;DHT22;10246;50.620;7.232;2023-07-16T06:04:24;20.20;1.00
20174;DHT22;10246;50.620;7.232;2023-07-16T06:06:51;20.30;1.00
20174;DHT22;10246;50.620;7.232;2023-07-16T06:09:18;20.30;1.00
20174;DHT22;10246;50.620;7.232;2023-07-16T06:11:46;20.30;1.00
20174;DHT22;10246;50.620;7.232;2023-07-16T06:14:13;20.40;1.00
20174;DHT22;10246;50.620;7.232;2023-07-16T06:16:40;20.60;1.00
20174;DHT22;10246;50.620;7.232;2023-07-16T06:19:06;20.60;1.00
20174;DHT22;10246;50.620;7.232;2023-07-16T06:21:34;20.50;1.00
20174;DHT22;10246;50.620;7.232;2023-07-16T06:24:01;20.50;1.00
20174;DHT22;10246;50.620;7.232;2023-07-16T06:26:28;20.50;1.00
20174;DHT22;10246;50.620;7.232;2023-07-16T06:28:54;20.50;1.00
20174;DHT22;10246;50.620;7.232;2023-07-16T06:31:21;20.70;1.00
20174;DHT22;10246;50.620;7.232;2023-07-16T06:33:48;20.80;1.00
20174;DHT22;10246;50.620;7.232;2023-07-16T06:36:16;20.80;1.00
20174;DHT22;10246;50.620;7.232;2023-07-16T06:38:47;20.90;1.00
20174;DHT22;10246;50.620;7.232;2023-07-16T06:41:15;21.00;1.00
20174;DHT22;10246;50.620;7.232;2023-07-16T06:43:42;21.10;1.00
20174;DHT22;10246;50.620;7.232;2023-07-16T06:46:09;21.10;1.00
20174;DHT22;10246;50.620;7.232;2023-07-16T06:48:36;21.20;1.00
20174;DHT22;10246;50.620;7.232;2023-07-16T06:51:02;21.20;1.00
20174;DHT22;10246;50.620;7.232;2023-07-16T06:53:29;21.20;1.00
20174;DHT22;10246;50.620;7.232;2023-07-16T06:55:59;21.20;1.00
20174;DHT22;10246;50.620;7.232;2023-07-16T06:58:31;21.20;1.00
20174;DHT22;10246;50.620;7.232;2023-07-16T07:00:58;21.20;1.00
20174;DHT22;10246;50.620;7.232;2023-07-16T07:03:25;21.30;1.00
20174;DHT22;10246;50.620;7.232;2023-07-16T07:05:52;21.40;1.00
20174;DHT22;10246;50.620;7.232;2023-07-16T07:08:18;21.50;1.00
20174;DHT22;10246;50.620;7.232;2023-07-16T07:10:46;21.50;1.00
20174;DHT22;10246;50.620;7.232;2023-07-16T07:13:14;21.50;1.00
20174;DHT22;10246;50.620;7.232;2023-07-16T07:15:42;21.60;1.00
20174;DHT22;10246;50.620;7.232;2023-07-16T07:18:08;21.60;1.00
20174;DHT22;10246;50.620;7.232;2023-07-16T07:20:35;21.70;1.00
20174;DHT22;10246;50.620;7.232;2023-07-16T07:23:02;21.90;1.00
20174;DHT22;10246;50.620;7.232;2023-07-16T07:25:30;22.00;1.00
20174;DHT22;10246;50.620;7.232;2023-07-16T07:27:57;22.20;1.00
20174;DHT22;10246;50.620;7.232;2023-07-16T07:30:25;22.20;1.00
20174;DHT22;10246;50.620;7.232;2023-07-16T07:32:52;22.30;1.00
20174;DHT22;10246;50.620;7.232;2023-07-16T07:35:19;22.40;1.00
20174;DHT22;10246;50.620;7.232;2023-07-16T07:37:45;22.40;1.00
20174;DHT22;10246;50.620;7.232;2023-07-16T07:40:12;22.40;1.00
20174;DHT22;10246;50.620;7.232;2023-07-16T07:42:39;22.40;1.00
20174;DHT22;10246;50.620;7.232;2023-07-16T07:45:06;22.60;1.00
20174;DHT22;10246;50.620;7.232;2023-07-16T07:47:34;22.80;1.00
20174;DHT22;10246;50.620;7.232;2023-07-16T07:50:01;22.70;1.00
20174;DHT22;10246;50.620;7.232;2023-07-16T07:52:28;22.70;1.00
20174;DHT22;10246;50.620;7.232;2023-07-16T07:54:55;22.80;1.00
20174;DHT22;10246;50.620;7.232;2023-07-16T07:57:22;22.80;1.00
20174;DHT22;10246;50.620;7.232;2023-07-16T07:59:49;23.00;1.00
20174;DHT22;10246;50.620;7.232;2023-07-16T08:02:17;23.10;1.00
20174;DHT22;10246;50.620;7.232;2023-07-16T08:04:48;23.30;1.00
20174;DHT22;10246;50.620;7.232;2023-07-16T08:07:17;23.10;1.00
20174;DHT22;10246;50.620;7.232;2023-07-16T08:09:44;23.10;1.00
20174;DHT22;10246;50.620;7.232;2023-07-16T08:12:11;23.10;1.00
20174;DHT22;10246;50.620;7.232;2023-07-16T08:14:38;23.20;1.00
20174;DHT22;10246;50.620;7.232;2023-07-16T08:17:05;23.30;1.00
20174;DHT22;10246;50.620;7.232;2023-07-16T08:19:32;23.40;1.00
20174;DHT22;10246;50.620;7.232;2023-07-16T08:22:00;23.30;1.00
20174;DHT22;10246;50.620;7.232;2023-07-16T08:24:27;23.30;1.00
20174;DHT22;10246;50.620;7.232;2023-07-16T08:26:53;23.40;1.00
20174;DHT22;10246;50.620;7.232;2023-07-16T08:29:21;23.50;1.00
20174;DHT22;10246;50.620;7.232;2023-07-16T08:31:48;23.60;1.00
20174;DHT22;10246;50.620;7.232;2023-07-16T08:34:15;23.60;1.00
20174;DHT22;10246;50.620;7.232;2023-07-16T08:36:42;23.70;1.00
20174;DHT22;10246;50.620;7.232;2023-07-16T08:39:11;23.80;1.00
20174;DHT22;10246;50.620;7.232;2023-07-16T08:41:38;24.00;1.00
20174;DHT22;10246;50.620;7.232;2023-07-16T08:44:05;24.20;1.00
20174;DHT22;10246;50.620;7.232;2023-07-16T08:46:32;24.10;1.00
20174;DHT22;10246;50.620;7.232;2023-07-16T08:48:59;24.00;1.00
20174;DHT22;10246;50.620;7.232;2023-07-16T08:51:26;24.00;1.00
20174;DHT22;10246;50.620;7.232;2023-07-16T08:53:55;23.90;1.00
20174;DHT22;10246;50.620;7.232;2023-07-16T08:56:25;24.00;1.00
20174;DHT22;10246;50.620;7.232;2023-07-16T08:58:55;24.00;1.00
20174;DHT22;10246;50.620;7.232;2023-07-16T09:01:22;24.10;1.00
20174;DHT22;10246;50.620;7.232;2023-07-16T09:03:49;24.30;1.00
20174;DHT22;10246;50.620;7.232;2023-07-16T09:06:16;24.30;1.00
20174;DHT22;10246;50.620;7.232;2023-07-16T09:08:43;24.30;1.00
20174;DHT22;10246;50.620;7.232;2023-07-16T09:11:11;24.30;1.00
20174;DHT22;10246;50.620;7.232;2023-07-16T09:13:43;24.30;1.00
20174;DHT22;10246;50.620;7.232;2023-07-16T09:16:10;24.30;1.00
20174;DHT22;10246;50.620;7.232;2023-07-16T09:18:39;24.30;1.00
20174;DHT22;10246;50.620;7.232;2023-07-16T09:21:06;24.40;1.00
20174;DHT22;10246;50.620;7.232;2023-07-16T09:23:33;24.50;1.00
20174;DHT22;10246;50.620;7.232;2023-07-16T09:26:00;24.40;1.00
20174;DHT22;10246;50.620;7.232;2023-07-16T09:28:30;24.50;1.00
20174;DHT22;10246;50.620;7.232;2023-07-16T09:31:03;24.70;1.00
20174;DHT22;10246;50.620;7.232;2023-07-16T09:33:31;25.00;1.00
20174;DHT22;10246;50.620;7.232;2023-07-16T09:35:58;25.20;1.00
20174;DHT22;10246;50.620;7.232;2023-07-16T09:38:27;25.20;1.00
20174;DHT22;10246;50.620;7.232;2023-07-16T09:40:56;25.10;1.00
20174;DHT22;10246;50.620;7.232;2023-07-16T09:43:23;25.00;1.00
20174;DHT22;10246;50.620;7.232;2023-07-16T09:45:50;25.10;1.00
20174;DHT22;10246;50.620;7.232;2023-07-16T09:48:18;25.00;1.00
20174;DHT22;10246;50.620;7.232;2023-07-16T09:50:50;25.10;1.00
20174;DHT22;10246;50.620;7.232;2023-07-16T09:53:19;25.10;1.00
20174;DHT22;10246;50.620;7.232;2023-07-16T09:55:48;25.30;1.00
20174;DHT22;10246;50.620;7.232;2023-07-16T09:58:18;25.30;1.00
20174;DHT22;10246;50.620;7.232;2023-07-16T10:00:46;25.40;1.00
20174;DHT22;10246;50.620;7.232;2023-07-16T10:03:15;25.50;1.00
20174;DHT22;10246;50.620;7.232;2023-07-16T10:05:43;25.40;1.00
20174;DHT22;10246;50.620;7.232;2023-07-16T10:08:17;25.50;1.00
20174;DHT22;10246;50.620;7.232;2023-07-16T10:10:46;25.40;1.00
20174;DHT22;10246;50.620;7.232;2023-07-16T10:13:14;25.50;1.00
20174;DHT22;10246;50.620;7.232;2023-07-16T10:15:51;25.50;1.00
20174;DHT22;10246;50.620;7.232;2023-07-16T10:18:29;25.30;1.00
20174;DHT22;10246;50.620;7.232;2023-07-16T10:21:02;25.30;1.00
20174;DHT22;10246;50.620;7.232;2023-07-16T10:23:37;25.30;1.00
20174;DHT22;10246;50.620;7.232;2023-07-16T10:26:06;25.50;1.00
20174;DHT22;10246;50.620;7.232;2023-07-16T10:28:33;25.90;1.00
20174;DHT22;10246;50.620;7.232;2023-07-16T10:31:00;25.70;1.00
20174;DHT22;10246;50.620;7.232;2023-07-16T10:33:27;25.50;1.00
20174;DHT22;10246;50.620;7.232;2023-07-16T10:35:57;25.70;1.00
20174;DHT22;10246;50.620;7.232;2023-07-16T10:38:28;25.80;1.00
20174;DHT22;10246;50.620;7.232;2023-07-16T10:40:56;25.90;1.00
20174;DHT22;10246;50.620;7.232;2023-07-16T10:43:25;25.90;1.00
20174;DHT22;10246;50.620;7.232;2023-07-16T10:45:55;25.90;1.00
20174;DHT22;10246;50.620;7.232;2023-07-16T10:48:24;26.10;1.00
20174;DHT22;10246;50.620;7.232;2023-07-16T10:50:53;26.30;1.00
20174;DHT22;10246;50.620;7.232;2023-07-16T10:53:20;26.30;1.00
20174;DHT22;10246;50.620;7.232;2023-07-16T10:55:49;26.20;1.00
20174;DHT22;10246;50.620;7.232;2023-07-16T10:58:17;26.10;1.00
20174;DHT22;10246;50.620;7.232;2023-07-16T11:00:44;26.20;1.00
20174;DHT22;10246;50.620;7.232;2023-07-16T11:03:15;26.40;1.00
20174;DHT22;10246;50.620;7.232;2023-07-16T11:05:45;26.50;1.00
20174;DHT22;10246;50.620;7.232;2023-07-16T11:08:21;26.50;1.00
20174;DHT22;10246;50.620;7.232;2023-07-16T11:10:54;26.60;1.00
20174;DHT22;10246;50.620;7.232;2023-07-16T11:13:25;26.80;1.00
20174;DHT22;10246;50.620;7.232;2023-07-16T11:15:54;26.80;1.00
20174;DHT22;10246;50.620;7.232;2023-07-16T11:18:22;26.80;1.00
20174;DHT22;10246;50.620;7.232;2023-07-16T11:20:51;26.70;1.00
20174;DHT22;10246;50.620;7.232;2023-07-16T11:23:18;26.90;1.00
20174;DHT22;10246;50.620;7.232;2023-07-16T11:25:46;27.10;1.00
20174;DHT22;10246;50.620;7.232;2023-07-16T11:28:14;27.40;1.00
20174;DHT22;10246;50.620;7.232;2023-07-16T11:30:41;27.30;1.00
20174;DHT22;10246;50.620;7.232;2023-07-16T11:33:10;27.30;1.00
20174;DHT22;10246;50.620;7.232;2023-07-16T11:35:37;27.40;1.00
20174;DHT22;10246;50.620;7.232;2023-07-16T11:38:04;27.40;1.00
20174;DHT22;10246;50.620;7.232;2023-07-16T11:40:34;27.50;1.00
20174;DHT22;10246;50.620;7.232;2023-07-16T11:43:08;27.60;1.00
20174;DHT22;10246;50.620;7.232;2023-07-16T11:45:38;27.40;1.00
20174;DHT22;10246;50.620;7.232;2023-07-16T11:48:05;27.50;1.00
20174;DHT22;10246;50.620;7.232;2023-07-16T11:50:32;27.60;1.00
20174;DHT22;10246;50.620;7.232;2023-07-16T11:53:00;28.00;1.00
20174;DHT22;10246;50.620;7.232;2023-07-16T11:55:27;27.90;1.00
20174;DHT22;10246;50.620;7.232;2023-07-16T11:57:54;27.60;1.00
20174;DHT22;10246;50.620;7.232;2023-07-16T12:00:22;27.50;1.00
20174;DHT22;10246;50.620;7.232;2023-07-16T12:02:50;27.20;1.00
20174;DHT22;10246;50.620;7.232;2023-07-16T12:05:17;27.30;1.00
20174;DHT22;10246;50.620;7.232;2023-07-16T12:07:44;27.10;1.00
20174;DHT22;10246;50.620;7.232;2023-07-16T12:10:11;27.20;1.00
20174;DHT22;10246;50.620;7.232;2023-07-16T12:12:38;27.40;1.00
20174;DHT22;10246;50.620;7.232;2023-07-16T12:15:05;27.80;1.00
20174;DHT22;10246;50.620;7.232;2023-07-16T12:17:32;27.90;1.00
20174;DHT22;10246;50.620;7.232;2023-07-16T12:20:01;28.00;1.00
20174;DHT22;10246;50.620;7.232;2023-07-16T12:22:29;28.30;1.00
20174;DHT22;10246;50.620;7.232;2023-07-16T12:24:56;28.40;1.00
20174;DHT22;10246;50.620;7.232;2023-07-16T12:27:23;28.10;1.00
20174;DHT22;10246;50.620;7.232;2023-07-16T12:29:49;27.80;1.00
20174;DHT22;10246;50.620;7.232;2023-07-16T12:32:17;27.80;1.00
20174;DHT22;10246;50.620;7.232;2023-07-16T12:34:45;27.70;1.00
20174;DHT22;10246;50.620;7.232;2023-07-16T12:37:13;27.70;1.00
20174;DHT22;10246;50.620;7.232;2023-07-16T12:39:42;27.60;1.00
20174;DHT22;10246;50.620;7.232;2023-07-16T12:42:09;27.90;1.00
20174;DHT22;10246;50.620;7.232;2023-07-16T12:44:36;28.20;1.00
20174;DHT22;10246;50.620;7.232;2023-07-16T12:47:04;28.10;1.00
20174;DHT22;10246;50.620;7.232;2023-07-16T12:49:33;28.30;1.00
20174;DHT22;10246;50.620;7.232;2023-07-16T12:52:00;28.20;1.00
20174;DHT22;10246;50.620;7.232;2023-07-16T12:54:28;28.20;1.00
20174;DHT22;10246;50.620;7.232;2023-07-16T12:56:55;28.10;1.00
20174;DHT22;10246;50.620;7.232;2023-07-16T12:59:22;28.10;1.00
20174;DHT22;10246;50.620;7.232;2023-07-16T13:01:50;28.00;1.00
20174;DHT22;10246;50.620;7.232;2023-07-16T13:04:16;28.10;1.00
20174;DHT22;10246;50.620;7.232;2023-07-16T13:06:43;28.00;1.00
20174;DHT22;10246;50.620;7.232;2023-07-16T13:09:12;28.00;1.00
20174;DHT22;10246;50.620;7.232;2023-07-16T13:11:41;28.30;1.00
20174;DHT22;10246;50.620;7.232;2023-07-16T13:14:08;28.50;1.00
20174;DHT22;10246;50.620;7.232;2023-07-16T13:16:34;28.50;1.00
20174;DHT22;10246;50.620;7.232;2023-07-16T13:19:01;28.40;1.00
20174;DHT22;10246;50.620;7.232;2023-07-16T13:21:29;28.20;1.00
20174;DHT22;10246;50.620;7.232;2023-07-16T13:23:55;27.90;1.00
20174;DHT22;10246;50.620;7.232;2023-07-16T13:26:22;27.90;1.00
20174;DHT22;10246;50.620;7.232;2023-07-16T13:28:50;27.90;1.00
20174;DHT22;10246;50.620;7.232;2023-07-16T13:31:18;27.90;1.00
20174;DHT22;10246;50.620;7.232;2023-07-16T13:33:44;27.90;1.00
20174;DHT22;10246;50.620;7.232;2023-07-16T13:36:14;28.00;1.00
20174;DHT22;10246;50.620;7.232;2023-07-16T13:38:42;28.10;1.00
20174;DHT22;10246;50.620;7.232;2023-07-16T13:41:09;28.20;1.00
20174;DHT22;10246;50.620;7.232;2023-07-16T13:43:36;28.30;1.00
20174;DHT22;10246;50.620;7.232;2023-07-16T13:46:04;28.40;1.00
20174;DHT22;10246;50.620;7.232;2023-07-16T13:48:34;28.40;1.00
20174;DHT22;10246;50.620;7.232;2023-07-16T13:51:06;28.30;1.00
20174;DHT22;10246;50.620;7.232;2023-07-16T13:53:36;28.20;1.00
20174;DHT22;10246;50.620;7.232;2023-07-16T13:56:03;28.30;1.00
20174;DHT22;10246;50.620;7.232;2023-07-16T13:58:30;28.20;1.00
20174;DHT22;10246;50.620;7.232;2023-07-16T14:01:00;28.40;1.00
20174;DHT22;10246;50.620;7.232;2023-07-16T14:03:30;28.70;1.00
20174;DHT22;10246;50.620;7.232;2023-07-16T14:05:57;28.80;1.00
20174;DHT22;10246;50.620;7.232;2023-07-16T14:08:33;28.80;1.00
20174;DHT22;10246;50.620;7.232;2023-07-16T14:11:01;28.80;1.00
20174;DHT22;10246;50.620;7.232;2023-07-16T14:13:28;28.60;1.00
20174;DHT22;10246;50.620;7.232;2023-07-16T14:15:55;28.40;1.00
20174;DHT22;10246;50.620;7.232;2023-07-16T14:18:22;28.20;1.00
20174;DHT22;10246;50.620;7.232;2023-07-16T14:20:50;28.10;1.00
20174;DHT22;10246;50.620;7.232;2023-07-16T14:23:17;28.20;1.00
20174;DHT22;10246;50.620;7.232;2023-07-16T14:25:46;28.20;1.00
20174;DHT22;10246;50.620;7.232;2023-07-16T14:28:13;28.00;1.00
20174;DHT22;10246;50.620;7.232;2023-07-16T14:30:39;28.00;1.00
20174;DHT22;10246;50.620;7.232;2023-07-16T14:33:06;28.00;1.00
20174;DHT22;10246;50.620;7.232;2023-07-16T14:35:33;28.00;1.00
20174;DHT22;10246;50.620;7.232;2023-07-16T14:38:02;28.00;1.00
20174;DHT22;10246;50.620;7.232;2023-07-16T14:40:28;28.50;1.00
20174;DHT22;10246;50.620;7.232;2023-07-16T14:42:55;28.80;1.00
20174;DHT22;10246;50.620;7.232;2023-07-16T14:45:22;28.80;1.00
20174;DHT22;10246;50.620;7.232;2023-07-16T14:47:49;28.80;1.00
20174;DHT22;10246;50.620;7.232;2023-07-16T14:50:15;28.70;1.00
20174;DHT22;10246;50.620;7.232;2023-07-16T14:52:45;28.80;1.00
20174;DHT22;10246;50.620;7.232;2023-07-16T14:55:13;28.70;1.00
20174;DHT22;10246;50.620;7.232;2023-07-16T14:57:40;28.30;1.00
20174;DHT22;10246;50.620;7.232;2023-07-16T15:00:08;28.10;1.00
20174;DHT22;10246;50.620;7.232;2023-07-16T15:02:36;28.20;1.00
20174;DHT22;10246;50.620;7.232;2023-07-16T15:05:04;28.20;1.00
20174;DHT22;10246;50.620;7.232;2023-07-16T15:07:31;28.20;1.00
20174;DHT22;10246;50.620;7.232;2023-07-16T15:09:58;28.10;1.00
20174;DHT22;10246;50.620;7.232;2023-07-16T15:12:26;28.00;1.00
20174;DHT22;10246;50.620;7.232;2023-07-16T15:14:53;27.90;1.00
20174;DHT22;10246;50.620;7.232;2023-07-16T15:17:20;27.90;1.00
20174;DHT22;10246;50.620;7.232;2023-07-16T15:19:48;27.90;1.00
20174;DHT22;10246;50.620;7.232;2023-07-16T15:22:15;28.00;1.00
20174;DHT22;10246;50.620;7.232;2023-07-16T15:24:43;27.80;1.00
20174;DHT22;10246;50.620;7.232;2023-07-16T15:27:10;27.80;1.00
20174;DHT22;10246;50.620;7.232;2023-07-16T15:29:38;27.50;1.00
20174;DHT22;10246;50.620;7.232;2023-07-16T15:32:06;27.60;1.00
20174;DHT22;10246;50.620;7.232;2023-07-16T15:34:33;27.50;1.00
20174;DHT22;10246;50.620;7.232;2023-07-16T15:37:00;27.60;1.00
20174;DHT22;10246;50.620;7.232;2023-07-16T15:39:26;27.80;1.00
20174;DHT22;10246;50.620;7.232;2023-07-16T15:41:53;28.00;1.00
20174;DHT22;10246;50.620;7.232;2023-07-16T15:44:20;28.10;1.00
20174;DHT22;10246;50.620;7.232;2023-07-16T15:46:48;28.00;1.00
20174;DHT22;10246;50.620;7.232;2023-07-16T15:49:19;27.80;1.00
20174;DHT22;10246;50.620;7.232;2023-07-16T15:51:53;27.60;1.00